Time;durP1;ratioP1;P1;durP2;ratioP2;P2;SDS_P1;SDS_P2;PMS_P1;PMS_P2;Temp;Humidity;BMP_temperature;BMP_pressure;BME280_temperature;BME280_humidity;BME280_pressure;Samples;Min_cycle;Max_cycle;Signal;HPM_P1;HPM_P2
2023/11/30 00:00:14;;;;;;;5.47;3.20;;;;;;;2.84;100.00;101433.28;2094573;28;20193;-64
2023/11/30 00:01:14;;;;;;;7.53;3.67;;;;;;;2.93;100.00;101447.56;2097913;28;20212;-63
2023/11/30 00:02:15;;;;;;;7.13;4.13;;;;;;;2.94;100.00;101449.94;2095011;28;20232;-63
2023/11/30 00:03:15;;;;;;;6.27;4.23;;;;;;;2.92;100.00;101437.78;2091076;28;20260;-63
2023/11/30 00:04:16;;;;;;;6.30;3.87;;;;;;;2.87;100.00;101430.63;2097904;28;20179;-63
2023/11/30 00:05:16;;;;;;;6.57;3.80;;;;;;;3.03;100.00;101447.75;2098401;28;20181;-63
2023/11/30 00:06:16;;;;;;;8.23;3.93;;;;;;;2.15;100.00;101313.84;2098030;28;20267;-63
2023/11/30 00:07:17;;;;;;;4.50;3.23;;;;;;;2.66;100.00;101380.13;2098040;28;20199;-63
2023/11/30 00:08:17;;;;;;;6.53;3.63;;;;;;;2.11;100.00;101288.34;2093533;28;20187;-63
2023/11/30 00:09:18;;;;;;;5.17;3.40;;;;;;;3.09;100.00;101440.06;2089981;28;20493;-63
2023/11/30 00:10:18;;;;;;;5.67;3.60;;;;;;;3.11;100.00;101454.16;2089967;28;20190;-63
2023/11/30 00:11:19;;;;;;;6.47;3.57;;;;;;;2.60;100.00;101373.38;2090027;28;20638;-63
2023/11/30 00:12:19;;;;;;;5.40;3.60;;;;;;;3.11;100.00;101459.63;2097447;28;20198;-63
2023/11/30 00:13:19;;;;;;;6.40;3.47;;;;;;;3.04;100.00;101443.09;2090236;28;20176;-63
2023/11/30 00:14:20;;;;;;;6.40;3.70;;;;;;;3.15;100.00;101455.03;2096686;28;20193;-63
2023/11/30 00:15:20;;;;;;;5.87;3.37;;;;;;;3.21;100.00;101459.06;2092064;28;20321;-63
2023/11/30 00:16:20;;;;;;;6.73;4.03;;;;;;;3.23;100.00;101457.53;2094259;28;20195;-63
2023/11/30 00:17:21;;;;;;;4.63;3.37;;;;;;;3.25;100.00;101459.91;2097952;28;20216;-63
2023/11/30 00:18:21;;;;;;;6.27;3.70;;;;;;;2.59;100.00;101341.69;2097648;28;20177;-63
2023/11/30 00:19:22;;;;;;;6.50;3.73;;;;;;;3.32;100.00;101460.03;2097588;28;20182;-63
2023/11/30 00:20:22;;;;;;;7.77;3.90;;;;;;;3.35;100.00;101460.13;2098406;28;20257;-64
2023/11/30 00:21:23;;;;;;;4.93;3.27;;;;;;;3.37;100.00;101463.28;2097507;28;20211;-63
2023/11/30 00:22:23;;;;;;;5.33;3.57;;;;;;;3.32;100.00;101465.53;2090761;28;20202;-64
2023/11/30 00:23:23;;;;;;;4.50;3.07;;;;;;;2.99;100.00;101411.28;2089755;28;20187;-63
2023/11/30 00:24:24;;;;;;;4.90;3.20;;;;;;;3.39;100.00;101460.97;2094287;28;20197;-63
2023/11/30 00:25:24;;;;;;;6.57;3.57;;;;;;;3.38;100.00;101462.13;2097885;28;20186;-64
2023/11/30 00:26:25;;;;;;;8.07;3.97;;;;;;;3.35;100.00;101462.06;2095270;28;20613;-63
2023/11/30 00:27:25;;;;;;;7.10;3.53;;;;;;;3.34;100.00;101464.00;2090181;28;20265;-63
2023/11/30 00:28:25;;;;;;;5.20;3.50;;;;;;;3.24;100.00;101448.16;2098393;28;20179;-64
2023/11/30 00:29:26;;;;;;;6.63;3.23;;;;;;;3.32;100.00;101465.53;2089843;28;20239;-63
2023/11/30 00:30:26;;;;;;;5.33;2.97;;;;;;;3.32;100.00;101466.31;2096723;28;20185;-64
2023/11/30 00:31:26;;;;;;;5.80;3.17;;;;;;;3.32;100.00;101471.00;2097044;28;20202;-63
2023/11/30 00:32:27;;;;;;;7.37;3.50;;;;;;;3.28;100.00;101467.44;2097965;28;20716;-64
2023/11/30 00:33:27;;;;;;;5.37;3.13;;;;;;;3.27;100.00;101463.88;2097223;28;20194;-63
2023/11/30 00:34:28;;;;;;;5.63;3.20;;;;;;;3.34;100.00;101468.72;2097116;28;20213;-64
2023/11/30 00:35:28;;;;;;;5.87;3.43;;;;;;;3.33;100.00;101467.13;2097848;28;20181;-63
2023/11/30 00:36:29;;;;;;;4.70;3.20;;;;;;;3.35;100.00;101462.88;2098363;28;20245;-64
2023/11/30 00:37:29;;;;;;;5.00;3.20;;;;;;;3.40;100.00;101467.25;2097763;28;20190;-63
2023/11/30 00:38:29;;;;;;;5.60;3.60;;;;;;;3.40;100.00;101464.50;2096905;28;20191;-63
2023/11/30 00:39:30;;;;;;;8.50;4.37;;;;;;;3.43;100.00;101469.25;2097587;28;20193;-63
2023/11/30 00:40:30;;;;;;;8.03;3.77;;;;;;;3.37;100.00;101474.25;2097357;28;20178;-64
2023/11/30 00:41:30;;;;;;;6.40;3.40;;;;;;;3.40;100.00;101473.53;2096942;28;20251;-63
2023/11/30 00:42:31;;;;;;;4.23;3.07;;;;;;;3.39;100.00;101477.41;2097938;28;20178;-63
2023/11/30 00:43:31;;;;;;;6.23;3.30;;;;;;;3.39;100.00;101482.09;2097444;28;20732;-63
2023/11/30 00:44:32;;;;;;;6.10;3.80;;;;;;;3.45;100.00;101475.16;2097736;28;20639;-63
2023/11/30 00:45:32;;;;;;;5.60;3.27;;;;;;;3.42;100.00;101481.38;2098028;28;20226;-64
2023/11/30 00:46:32;;;;;;;5.33;3.13;;;;;;;3.39;100.00;101485.63;2091487;28;20216;-63
2023/11/30 00:47:33;;;;;;;4.10;3.10;;;;;;;3.35;100.00;101476.56;2094745;28;20181;-63
2023/11/30 00:48:33;;;;;;;6.57;3.57;;;;;;;3.40;100.00;101484.50;2097678;28;20223;-63
2023/11/30 00:49:34;;;;;;;6.53;3.43;;;;;;;3.36;100.00;101489.09;2095096;28;20695;-63
2023/11/30 00:50:34;;;;;;;7.23;3.90;;;;;;;3.38;100.00;101484.03;2091210;28;20670;-63
2023/11/30 00:51:34;;;;;;;5.63;3.43;;;;;;;3.34;100.00;101485.16;2096403;28;20700;-63
2023/11/30 00:52:35;;;;;;;5.73;3.37;;;;;;;3.29;100.00;101477.22;2089870;28;20215;-63
2023/11/30 00:53:35;;;;;;;6.83;4.50;;;;;;;3.31;100.00;101485.84;2089484;28;20771;-64
2023/11/30 00:54:36;;;;;;;4.90;3.17;;;;;;;2.78;100.00;101408.16;2089145;28;20192;-63
2023/11/30 00:55:36;;;;;;;5.80;3.03;;;;;;;3.25;100.00;101482.63;2094768;28;20189;-63
2023/11/30 00:56:37;;;;;;;4.13;3.30;;;;;;;3.30;100.00;101487.03;2097791;28;20227;-64
2023/11/30 00:57:37;;;;;;;4.77;3.00;;;;;;;3.35;100.00;101483.97;2097003;28;20319;-63
2023/11/30 00:58:37;;;;;;;5.47;3.67;;;;;;;3.25;100.00;101476.34;2096685;28;20183;-64
2023/11/30 00:59:38;;;;;;;5.80;3.57;;;;;;;3.33;100.00;101489.03;2097803;28;20230;-64
2023/11/30 01:00:38;;;;;;;6.03;3.27;;;;;;;3.24;100.00;101475.56;2097848;28;20170;-63
2023/11/30 01:01:39;;;;;;;5.67;3.30;;;;;;;3.30;100.00;101487.03;2089554;28;20270;-64
2023/11/30 01:02:40;;;;;;;6.07;3.33;;;;;;;3.27;100.00;101482.25;2089347;28;20222;-63
2023/11/30 01:03:40;;;;;;;5.80;2.97;;;;;;;3.21;100.00;101491.91;2093129;28;20197;-64
2023/11/30 01:04:42;;;;;;;5.23;3.27;;;;;;;3.19;100.00;101495.00;2093819;28;20277;-63
2023/11/30 01:05:42;;;;;;;5.65;3.63;;;;;;;3.19;100.00;101503.22;2092292;28;20187;-63
2023/11/30 01:06:42;;;;;;;5.37;3.23;;;;;;;3.15;100.00;101502.41;2097487;28;20180;-63
2023/11/30 01:07:43;;;;;;;8.33;3.87;;;;;;;3.02;100.00;101503.69;2097744;28;20177;-64
2023/11/30 01:08:44;;;;;;;5.20;3.40;;;;;;;3.16;100.00;101503.97;2089766;28;20174;-63
2023/11/30 01:09:44;;;;;;;6.67;3.73;;;;;;;3.13;100.00;101503.91;2089126;28;20195;-63
2023/11/30 01:10:45;;;;;;;5.53;3.70;;;;;;;3.14;100.00;101509.00;2095658;28;20201;-63
2023/11/30 01:11:45;;;;;;;5.07;3.13;;;;;;;3.14;100.00;101511.75;2096919;28;20776;-63
2023/11/30 01:12:45;;;;;;;6.40;3.40;;;;;;;3.05;100.00;101496.69;2097500;28;20660;-63
2023/11/30 01:13:46;;;;;;;14.93;3.33;;;;;;;2.97;100.00;101489.50;2097686;28;20168;-64
2023/11/30 01:14:46;;;;;;;5.63;3.40;;;;;;;2.98;100.00;101502.03;2097394;28;20257;-63
2023/11/30 01:15:47;;;;;;;5.90;3.23;;;;;;;3.00;100.00;101500.53;2097391;28;20178;-63
2023/11/30 01:16:47;;;;;;;5.73;3.23;;;;;;;2.94;100.00;101501.16;2097157;28;20698;-64
2023/11/30 01:17:48;;;;;;;9.17;4.70;;;;;;;2.93;100.00;101500.34;2096804;28;20191;-63
2023/11/30 01:18:49;;;;;;;5.13;3.30;;;;;;;2.92;100.00;101503.47;2097264;28;20286;-63
2023/11/30 01:19:49;;;;;;;9.17;4.00;;;;;;;2.86;100.00;101497.47;2097395;28;20193;-63
2023/11/30 01:20:49;;;;;;;8.23;4.50;;;;;;;2.84;100.00;101499.78;2097150;28;20196;-63
2023/11/30 01:21:50;;;;;;;5.73;3.73;;;;;;;2.82;100.00;101499.34;2096970;28;20177;-63
2023/11/30 01:22:50;;;;;;;6.83;3.80;;;;;;;2.85;100.00;101504.13;2096801;28;20655;-63
2023/11/30 01:23:51;;;;;;;6.83;3.67;;;;;;;2.87;100.00;101499.06;2097324;28;20177;-63
2023/11/30 01:24:51;;;;;;;6.90;4.00;;;;;;;2.85;100.00;101501.38;2097861;28;20197;-63
2023/11/30 01:25:51;;;;;;;4.50;3.63;;;;;;;2.86;100.00;101505.69;2097505;28;20208;-63
2023/11/30 01:26:52;;;;;;;7.30;4.20;;;;;;;2.88;100.00;101508.84;2091095;28;20281;-63
2023/11/30 01:27:52;;;;;;;7.73;4.73;;;;;;;2.88;100.00;101505.34;2089344;28;20197;-63
2023/11/30 01:28:53;;;;;;;7.47;4.20;;;;;;;2.88;100.00;101503.38;2092422;28;20575;-63
2023/11/30 01:29:53;;;;;;;7.83;4.10;;;;;;;2.88;100.00;101511.59;2097211;28;20196;-63
2023/11/30 01:30:53;;;;;;;7.10;4.67;;;;;;;2.88;100.00;101508.84;2096691;28;20204;-63
2023/11/30 01:31:54;;;;;;;6.67;4.27;;;;;;;2.88;100.00;101506.13;2097273;28;20193;-63
2023/11/30 01:32:54;;;;;;;8.50;4.83;;;;;;;2.77;100.00;101490.63;2097126;28;20209;-63
2023/11/30 01:33:55;;;;;;;8.23;5.07;;;;;;;2.89;100.00;101501.44;2090563;28;20190;-63
2023/11/30 01:34:55;;;;;;;7.57;3.87;;;;;;;2.85;100.00;101504.13;2095026;28;20203;-63
2023/11/30 01:35:56;;;;;;;7.17;4.33;;;;;;;2.64;100.00;101467.28;2092766;28;20672;-63
2023/11/30 01:36:56;;;;;;;6.80;4.20;;;;;;;2.86;100.00;101511.16;2092532;28;20205;-63
2023/11/30 01:37:57;;;;;;;5.20;3.37;;;;;;;2.89;100.00;101505.00;2097510;28;20702;-63
2023/11/30 01:38:57;;;;;;;5.37;3.37;;;;;;;2.88;100.00;101514.31;2097090;28;20601;-63
2023/11/30 01:39:57;;;;;;;6.80;4.03;;;;;;;2.87;100.00;101510.00;2097631;28;20459;-63
2023/11/30 01:40:58;;;;;;;8.03;3.73;;;;;;;2.86;100.00;101499.41;2088799;28;20198;-63
2023/11/30 01:41:58;;;;;;;6.20;3.80;;;;;;;2.77;100.00;101490.63;2088762;28;20191;-63
2023/11/30 01:42:59;;;;;;;6.43;3.67;;;;;;;2.89;100.00;101501.44;2094894;28;20241;-63
2023/11/30 01:43:59;;;;;;;7.60;4.03;;;;;;;2.83;100.00;101498.19;2092758;28;20201;-63
2023/11/30 01:44:59;;;;;;;6.50;3.47;;;;;;;2.87;100.00;101520.97;2092483;28;20193;-63
2023/11/30 01:46:00;;;;;;;7.93;4.43;;;;;;;2.84;100.00;101510.75;2095026;28;20181;-63
2023/11/30 01:47:00;;;;;;;7.60;4.57;;;;;;;2.83;100.00;101506.41;2089523;28;20176;-63
2023/11/30 01:48:01;;;;;;;5.70;3.37;;;;;;;2.85;100.00;101503.31;2097234;28;20267;-63
2023/11/30 01:49:01;;;;;;;5.50;3.73;;;;;;;2.65;100.00;101474.34;2089149;28;20268;-63
2023/11/30 01:50:02;;;;;;;6.07;3.57;;;;;;;2.82;100.00;101513.03;2095352;28;20234;-63
2023/11/30 01:51:07;;;;;;;9.67;4.17;;;;;;;2.82;100.00;101507.56;2096099;28;20579;-63
2023/11/30 01:52:08;;;;;;;7.65;4.13;;;;;;;2.86;100.00;101493.94;2096108;28;20715;-63
2023/11/30 01:53:09;;;;;;;6.90;3.92;;;;;;;2.86;100.00;101504.88;2093490;28;20616;-63
2023/11/30 01:54:09;;;;;;;5.43;3.70;;;;;;;2.85;100.00;101498.63;2091706;28;20234;-63
2023/11/30 01:55:12;;;;;;;8.77;4.43;;;;;;;2.21;100.00;101402.63;2095643;28;20177;-63
2023/11/30 01:56:14;;;;;;;7.35;3.92;;;;;;;2.83;100.00;101495.44;2089486;28;20190;-63
2023/11/30 01:57:15;;;;;;;8.45;4.05;;;;;;;2.85;100.00;101498.63;2097624;28;20235;-63
2023/11/30 01:58:15;;;;;;;8.27;4.10;;;;;;;2.74;100.00;101488.59;2097196;28;20727;-63
2023/11/30 01:59:16;;;;;;;9.23;4.30;;;;;;;2.86;100.00;101504.88;2097054;28;20275;-63
2023/11/30 02:00:18;;;;;;;6.37;3.77;;;;;;;2.86;100.00;101500.22;2091321;28;20197;-63
2023/11/30 02:01:18;;;;;;;6.28;4.00;;;;;;;2.22;100.00;101398.75;2092907;28;20232;-64
2023/11/30 02:02:19;;;;;;;6.93;3.53;;;;;;;2.88;100.00;101499.88;2096625;28;20255;-63
2023/11/30 02:03:19;;;;;;;8.40;3.90;;;;;;;2.88;100.00;101489.69;2096517;28;20179;-63
2023/11/30 02:04:21;;;;;;;6.57;4.37;;;;;;;2.90;100.00;101492.88;2097234;28;20631;-63
2023/11/30 02:05:21;;;;;;;6.00;3.75;;;;;;;2.90;100.00;101495.63;2096871;28;20246;-63
2023/11/30 02:06:22;;;;;;;6.47;3.90;;;;;;;2.90;100.00;101494.81;2089276;28;20184;-63
2023/11/30 02:07:22;;;;;;;8.37;3.77;;;;;;;2.89;100.00;101493.22;2095802;28;20197;-63
2023/11/30 02:08:22;;;;;;;6.63;3.43;;;;;;;2.84;100.00;101485.31;2097465;28;20279;-63
2023/11/30 02:09:24;;;;;;;7.13;3.23;;;;;;;2.89;100.00;101485.03;2092118;28;20200;-63
2023/11/30 02:10:25;;;;;;;9.00;3.80;;;;;;;2.88;100.00;101491.66;2092690;28;20659;-63
2023/11/30 02:11:25;;;;;;;6.60;4.07;;;;;;;2.28;100.00;101413.75;2096149;28;20616;-63
2023/11/30 02:12:26;;;;;;;6.37;3.80;;;;;;;2.76;100.00;101499.97;2095948;28;20216;-63
2023/11/30 02:13:26;;;;;;;6.00;3.17;;;;;;;2.71;100.00;101492.84;2088845;28;20187;-63
2023/11/30 02:14:27;;;;;;;4.77;3.27;;;;;;;2.68;100.00;101490.81;2097351;28;20201;-63
2023/11/30 02:15:27;;;;;;;12.70;3.33;;;;;;;2.64;100.00;101484.50;2095940;28;21072;-63
2023/11/30 02:16:27;;;;;;;5.23;3.07;;;;;;;2.63;100.00;101484.84;2096479;28;20236;-63
2023/11/30 02:17:28;;;;;;;9.23;4.10;;;;;;;2.54;100.00;101485.06;2092237;28;20611;-63
2023/11/30 02:18:28;;;;;;;6.83;3.77;;;;;;;2.56;100.00;101490.97;2091762;28;20207;-63
2023/11/30 02:19:29;;;;;;;7.50;4.13;;;;;;;1.39;100.00;101312.91;2096256;28;20167;-63
2023/11/30 02:20:30;;;;;;;6.50;3.67;;;;;;;2.34;100.00;101471.69;2095725;28;20179;-63
2023/11/30 02:21:30;;;;;;;9.00;4.40;;;;;;;2.37;100.00;101484.66;2088215;28;20261;-63
2023/11/30 02:22:30;;;;;;;7.00;4.40;;;;;;;2.31;100.00;101477.88;2097521;28;20182;-63
2023/11/30 02:23:31;;;;;;;6.73;4.23;;;;;;;2.35;100.00;101479.53;2096495;28;20216;-63
2023/11/30 02:24:31;;;;;;;5.17;3.60;;;;;;;2.37;100.00;101485.44;2091449;28;20787;-63
2023/11/30 02:25:32;;;;;;;8.50;4.90;;;;;;;2.40;100.00;101482.00;2093171;28;20279;-63
2023/11/30 02:26:32;;;;;;;12.90;4.73;;;;;;;2.37;100.00;101481.94;2093631;28;20192;-64
2023/11/30 02:27:32;;;;;;;8.23;4.27;;;;;;;2.27;100.00;101464.09;2090889;28;20302;-63
2023/11/30 02:28:33;;;;;;;5.20;3.40;;;;;;;2.34;100.00;101477.97;2096783;28;20174;-63
2023/11/30 02:29:33;;;;;;;5.63;3.90;;;;;;;2.35;100.00;101471.34;2096852;28;20224;-63
2023/11/30 02:30:37;;;;;;;6.27;3.37;;;;;;;2.32;100.00;101482.97;2096274;28;20710;-63
2023/11/30 02:31:37;;;;;;;4.85;3.08;;;;;;;2.20;100.00;101444.81;2095621;28;22170;-64
2023/11/30 02:32:38;;;;;;;6.53;3.60;;;;;;;2.38;100.00;101470.63;2097019;28;20195;-63
2023/11/30 02:33:38;;;;;;;7.23;3.53;;;;;;;2.36;100.00;101474.88;2096651;28;20297;-63
2023/11/30 02:34:39;;;;;;;13.60;3.93;;;;;;;2.32;100.00;101474.78;2097341;28;20186;-63
2023/11/30 02:35:39;;;;;;;6.37;3.83;;;;;;;2.30;100.00;101484.47;2096948;28;20179;-63
2023/11/30 02:36:39;;;;;;;10.57;4.47;;;;;;;2.27;100.00;101479.75;2097122;28;20198;-63
2023/11/30 02:37:40;;;;;;;9.03;4.30;;;;;;;2.25;100.00;101482.81;2096715;28;20203;-63
2023/11/30 02:38:40;;;;;;;6.13;3.83;;;;;;;1.42;100.00;101355.88;2089093;28;20174;-63
2023/11/30 02:39:41;;;;;;;6.07;3.63;;;;;;;1.83;100.00;101412.69;2095786;28;20253;-63
2023/11/30 02:40:41;;;;;;;5.87;3.30;;;;;;;1.86;100.00;101412.75;2090745;28;20370;-63
2023/11/30 02:41:42;;;;;;;5.87;3.77;;;;;;;1.27;100.00;101316.50;2088062;28;20654;-63
2023/11/30 02:42:42;;;;;;;6.70;4.00;;;;;;;2.33;100.00;101476.38;2092516;28;20199;-63
2023/11/30 02:43:42;;;;;;;10.40;4.10;;;;;;;2.40;100.00;101484.72;2094059;28;20177;-64
2023/11/30 02:44:43;;;;;;;7.33;3.90;;;;;;;2.42;100.00;101485.16;2089637;28;20167;-63
2023/11/30 02:45:43;;;;;;;6.83;4.33;;;;;;;2.34;100.00;101483.44;2097602;28;20210;-63
2023/11/30 02:46:43;;;;;;;7.87;4.87;;;;;;;2.32;100.00;101482.97;2088873;28;20189;-63
2023/11/30 02:47:44;;;;;;;5.90;3.40;;;;;;;2.29;100.00;101472.75;2095487;28;20193;-63
2023/11/30 02:48:44;;;;;;;12.47;4.70;;;;;;;2.38;100.00;101487.06;2096848;28;20282;-63
2023/11/30 02:49:45;;;;;;;9.10;4.47;;;;;;;2.31;100.00;101469.69;2092252;28;20678;-63
2023/11/30 02:50:45;;;;;;;9.33;5.70;;;;;;;2.42;100.00;101479.69;2088264;28;20203;-64
2023/11/30 02:51:46;;;;;;;13.47;4.87;;;;;;;2.40;100.00;101484.72;2088099;28;20213;-63
2023/11/30 02:52:46;;;;;;;11.87;6.50;;;;;;;2.37;100.00;101492.88;2089191;28;20177;-63
2023/11/30 02:53:47;;;;;;;11.87;5.53;;;;;;;2.20;100.00;101466.69;2097165;28;20181;-63
2023/11/30 02:54:47;;;;;;;9.33;4.80;;;;;;;2.34;100.00;101491.63;2096938;28;20187;-63
2023/11/30 02:55:48;;;;;;;7.03;4.47;;;;;;;2.35;100.00;101498.69;2090181;28;20624;-63
2023/11/30 02:56:48;;;;;;;6.67;4.37;;;;;;;2.29;100.00;101489.19;2094325;28;20228;-64
2023/11/30 02:57:49;;;;;;;10.93;5.13;;;;;;;2.39;100.00;101496.84;2096996;28;20198;-63
2023/11/30 02:58:50;;;;;;;8.23;4.70;;;;;;;2.39;100.00;101498.75;2095844;28;20219;-63
2023/11/30 02:59:50;;;;;;;6.97;3.83;;;;;;;2.38;100.00;101495.25;2096554;28;20265;-63
2023/11/30 03:00:50;;;;;;;8.43;4.67;;;;;;;2.31;100.00;101489.59;2096431;28;20259;-63
2023/11/30 03:01:51;;;;;;;7.27;3.60;;;;;;;2.38;100.00;101494.44;2097189;28;20250;-63
2023/11/30 03:02:51;;;;;;;7.33;4.50;;;;;;;2.35;100.00;101504.16;2098393;28;20204;-63
2023/11/30 03:03:52;;;;;;;6.43;3.70;;;;;;;2.34;100.00;101499.03;2098906;28;20198;-63
2023/11/30 03:04:52;;;;;;;8.37;5.10;;;;;;;1.99;100.00;101447.06;2098551;28;20192;-63
2023/11/30 03:05:52;;;;;;;6.20;3.70;;;;;;;2.38;100.00;101503.47;2094500;28;20202;-63
2023/11/30 03:06:53;;;;;;;7.23;4.13;;;;;;;2.37;100.00;101499.13;2093059;28;20194;-63
2023/11/30 03:07:53;;;;;;;6.73;3.90;;;;;;;2.36;100.00;101505.75;2098690;28;20229;-63
2023/11/30 03:08:54;;;;;;;7.43;3.77;;;;;;;2.10;100.00;101464.50;2098365;28;20252;-63
2023/11/30 03:09:54;;;;;;;12.07;5.10;;;;;;;2.31;100.00;101500.53;2098789;28;20179;-63
2023/11/30 03:10:54;;;;;;;6.60;3.93;;;;;;;2.34;100.00;101502.56;2090515;28;20190;-63
2023/11/30 03:11:55;;;;;;;7.60;4.77;;;;;;;2.33;100.00;101495.53;2096263;28;20218;-63
2023/11/30 03:12:55;;;;;;;6.20;3.73;;;;;;;2.29;100.00;101500.13;2098131;28;20700;-63
2023/11/30 03:13:56;;;;;;;8.83;3.90;;;;;;;2.24;100.00;101485.91;2098589;28;20711;-63
2023/11/30 03:14:56;;;;;;;8.40;4.87;;;;;;;2.29;100.00;101493.84;2098355;28;20199;-63
2023/11/30 03:15:56;;;;;;;8.43;4.83;;;;;;;2.26;100.00;101500.03;2098489;28;20189;-63
2023/11/30 03:16:57;;;;;;;8.60;4.03;;;;;;;2.26;100.00;101500.03;2098121;28;20185;-63
2023/11/30 03:17:57;;;;;;;9.77;4.73;;;;;;;2.25;100.00;101510.16;2098145;28;20197;-63
2023/11/30 03:18:58;;;;;;;10.57;4.80;;;;;;;2.26;100.00;101510.97;2098155;28;20668;-63
2023/11/30 03:19:58;;;;;;;12.47;5.60;;;;;;;2.25;100.00;101507.44;2091987;28;20190;-64
2023/11/30 03:20:59;;;;;;;6.53;4.20;;;;;;;2.22;100.00;101510.88;2095073;28;20199;-63
2023/11/30 03:21:59;;;;;;;9.10;4.63;;;;;;;2.19;100.00;101508.06;2094152;28;20189;-64
2023/11/30 03:22:59;;;;;;;11.30;5.10;;;;;;;2.14;100.00;101506.41;2092993;28;22936;-63
2023/11/30 03:24:00;;;;;;;12.67;5.37;;;;;;;2.15;100.00;101504.44;2096970;28;20654;-63
2023/11/30 03:25:00;;;;;;;9.47;5.07;;;;;;;2.12;100.00;101513.38;2089843;28;20683;-63
2023/11/30 03:26:01;;;;;;;8.10;4.80;;;;;;;2.08;100.00;101518.75;2090488;28;20185;-64
2023/11/30 03:27:01;;;;;;;5.90;4.00;;;;;;;2.11;100.00;101520.00;2096920;28;20246;-63
2023/11/30 03:28:02;;;;;;;8.57;4.00;;;;;;;2.06;100.00;101518.28;2098263;28;20302;-63
2023/11/30 03:29:02;;;;;;;7.13;4.03;;;;;;;2.05;100.00;101515.94;2098517;28;20210;-63
2023/11/30 03:30:05;;;;;;;7.47;4.33;;;;;;;1.98;100.00;101511.09;2098087;28;20714;-63
2023/11/30 03:31:05;;;;;;;9.23;4.15;;;;;;;2.04;100.00;101508.84;2097489;28;20211;-63
2023/11/30 03:32:06;;;;;;;8.47;4.57;;;;;;;2.08;100.00;101510.56;2096976;28;20208;-63
2023/11/30 03:33:06;;;;;;;9.00;4.83;;;;;;;2.12;100.00;101502.44;2097441;28;20183;-63
2023/11/30 03:34:07;;;;;;;7.97;4.43;;;;;;;1.63;100.00;101430.94;2089802;28;20710;-63
2023/11/30 03:35:08;;;;;;;8.10;4.63;;;;;;;2.17;100.00;101507.63;2090261;28;20281;-63
2023/11/30 03:36:08;;;;;;;9.80;5.30;;;;;;;2.12;100.00;101510.63;2096529;28;20220;-63
2023/11/30 03:37:09;;;;;;;7.83;5.00;;;;;;;2.19;100.00;101510.78;2092777;28;20289;-64
2023/11/30 03:38:09;;;;;;;11.07;4.97;;;;;;;2.23;100.00;101512.47;2093903;28;20207;-63
2023/11/30 03:39:09;;;;;;;6.67;4.03;;;;;;;2.26;100.00;101513.72;2098140;28;20290;-63
2023/11/30 03:40:11;;;;;;;12.87;5.43;;;;;;;1.91;100.00;101456.22;2097896;28;20180;-63
2023/11/30 03:41:11;;;;;;;7.70;5.18;;;;;;;2.25;100.00;101515.66;2097529;28;20200;-63
2023/11/30 03:42:12;;;;;;;7.47;4.30;;;;;;;1.58;100.00;101403.91;2098149;28;20202;-63
2023/11/30 03:43:12;;;;;;;11.37;4.47;;;;;;;2.26;100.00;101509.03;2098324;28;20239;-64
2023/11/30 03:44:13;;;;;;;6.17;4.00;;;;;;;2.31;100.00;101518.91;2091859;28;20720;-63
2023/11/30 03:45:13;;;;;;;13.33;4.53;;;;;;;2.33;100.00;101517.41;2089336;28;20248;-64
2023/11/30 03:46:14;;;;;;;6.63;3.97;;;;;;;2.34;100.00;101527.19;2093234;28;20688;-63
2023/11/30 03:47:15;;;;;;;6.13;4.18;;;;;;;2.36;100.00;101521.38;2098319;28;20201;-63
2023/11/30 03:48:15;;;;;;;7.90;4.97;;;;;;;2.28;100.00;101520.41;2097908;28;20248;-63
2023/11/30 03:49:16;;;;;;;5.50;3.70;;;;;;;2.30;100.00;101520.84;2098640;28;20260;-63
2023/11/30 03:50:16;;;;;;;6.90;4.43;;;;;;;2.26;100.00;101519.97;2098623;28;20205;-63
2023/11/30 03:51:17;;;;;;;8.67;5.00;;;;;;;2.28;100.00;101523.16;2096987;28;20205;-64
2023/11/30 03:52:17;;;;;;;16.17;5.40;;;;;;;2.24;100.00;101522.25;2097755;28;20749;-63
2023/11/30 03:53:17;;;;;;;8.53;4.57;;;;;;;2.24;100.00;101518.72;2097970;28;20582;-63
2023/11/30 03:54:18;;;;;;;8.47;5.00;;;;;;;2.21;100.00;101517.50;2098093;28;20611;-63
2023/11/30 03:55:19;;;;;;;8.60;4.40;;;;;;;1.45;100.00;101393.41;2097992;28;20343;-63
2023/11/30 03:56:19;;;;;;;8.67;4.67;;;;;;;2.18;100.00;101515.50;2098038;28;20179;-63
2023/11/30 03:57:20;;;;;;;8.63;4.73;;;;;;;2.21;100.00;101506.56;2097720;28;20181;-63
2023/11/30 03:58:20;;;;;;;12.07;4.43;;;;;;;2.20;100.00;101510.44;2090288;28;20185;-64
2023/11/30 03:59:20;;;;;;;6.90;4.80;;;;;;;2.23;100.00;101508.94;2097493;28;20195;-63
2023/11/30 04:00:21;;;;;;;6.27;3.87;;;;;;;2.24;100.00;101510.53;2091698;28;20213;-63
2023/11/30 04:01:24;;;;;;;6.57;4.03;;;;;;;2.25;100.00;101510.16;2089268;28;20197;-63
2023/11/30 04:02:25;;;;;;;4.95;4.00;;;;;;;2.25;100.00;101515.66;2094080;28;20570;-63
2023/11/30 04:03:25;;;;;;;7.87;4.83;;;;;;;2.26;100.00;101514.50;2097830;28;20199;-63
2023/11/30 04:04:26;;;;;;;6.33;3.90;;;;;;;2.24;100.00;101511.31;2096485;28;20203;-63
2023/11/30 04:05:27;;;;;;;5.72;4.00;;;;;;;2.24;100.00;101508.59;2089679;28;20269;-63
2023/11/30 04:06:27;;;;;;;8.33;4.30;;;;;;;2.22;100.00;101513.59;2097567;28;20654;-64
2023/11/30 04:07:29;;;;;;;7.57;3.87;;;;;;;2.20;100.00;101509.63;2090016;28;20190;-63
2023/11/30 04:08:29;;;;;;;6.88;4.18;;;;;;;2.19;100.00;101519.00;2096631;28;20575;-63
2023/11/30 04:09:30;;;;;;;6.40;4.43;;;;;;;2.12;100.00;101516.09;2092422;28;20202;-63
2023/11/30 04:10:30;;;;;;;7.77;3.90;;;;;;;2.12;100.00;101514.16;2094522;28;20186;-64
2023/11/30 04:11:31;;;;;;;6.97;4.83;;;;;;;2.10;100.00;101513.72;2093715;28;20754;-64
2023/11/30 04:12:32;;;;;;;9.53;5.03;;;;;;;2.09;100.00;101508.59;2091941;28;20724;-63
2023/11/30 04:13:32;;;;;;;5.13;3.83;;;;;;;2.09;100.00;101519.53;2097189;28;20620;-63
2023/11/30 04:14:32;;;;;;;9.03;3.90;;;;;;;2.10;100.00;101512.94;2098439;28;20179;-63
2023/11/30 04:15:33;;;;;;;6.23;3.90;;;;;;;2.07;100.00;101511.72;2098267;28;20244;-63
2023/11/30 04:16:34;;;;;;;8.87;4.00;;;;;;;2.08;100.00;101521.50;2091276;28;20221;-63
2023/11/30 04:17:35;;;;;;;8.05;4.18;;;;;;;2.10;100.00;101523.88;2089954;28;20288;-63
2023/11/30 04:18:35;;;;;;;6.30;3.63;;;;;;;2.07;100.00;101521.84;2089747;28;20202;-63
2023/11/30 04:19:35;;;;;;;6.77;3.90;;;;;;;2.08;100.00;101517.94;2092585;28;20234;-63
2023/11/30 04:20:36;;;;;;;7.00;4.27;;;;;;;2.04;100.00;101523.34;2098021;28;20183;-63
2023/11/30 04:21:37;;;;;;;6.03;4.07;;;;;;;2.04;100.00;101519.78;2096218;28;20633;-63
2023/11/30 04:22:37;;;;;;;6.93;4.27;;;;;;;2.02;100.00;101522.09;2097759;28;20195;-63
2023/11/30 04:23:37;;;;;;;7.67;4.37;;;;;;;1.97;100.00;101512.25;2097373;28;20665;-63
2023/11/30 04:24:38;;;;;;;9.07;5.50;;;;;;;2.03;100.00;101516.28;2091577;28;20198;-63
2023/11/30 04:25:38;;;;;;;9.90;5.53;;;;;;;1.00;100.00;101361.06;2095103;28;20281;-63
2023/11/30 04:26:39;;;;;;;9.40;4.10;;;;;;;2.10;100.00;101535.59;2097716;28;20190;-63
2023/11/30 04:27:39;;;;;;;9.33;5.70;;;;;;;1.95;100.00;101511.78;2097927;28;20680;-63
2023/11/30 04:28:40;;;;;;;6.57;4.37;;;;;;;1.55;100.00;101447.50;2097871;28;20176;-63
2023/11/30 04:29:40;;;;;;;11.37;5.00;;;;;;;2.09;100.00;101525.00;2097763;28;20210;-63
2023/11/30 04:30:42;;;;;;;7.03;4.50;;;;;;;2.07;100.00;101530.84;2098157;28;20204;-63
2023/11/30 04:31:42;;;;;;;11.27;6.40;;;;;;;2.08;100.00;101534.34;2089529;28;20737;-63
2023/11/30 04:32:43;;;;;;;11.27;6.07;;;;;;;2.05;100.00;101524.91;2089489;28;20561;-64
2023/11/30 04:33:43;;;;;;;10.77;5.53;;;;;;;2.04;100.00;101517.88;2095027;28;20246;-63
2023/11/30 04:34:44;;;;;;;8.10;4.63;;;;;;;2.04;100.00;101525.25;2097818;28;20705;-63
2023/11/30 04:35:44;;;;;;;11.07;4.40;;;;;;;1.99;100.00;101514.59;2094254;28;20206;-63
2023/11/30 04:36:45;;;;;;;8.57;5.17;;;;;;;1.54;100.00;101451.41;2091141;28;20176;-63
2023/11/30 04:37:45;;;;;;;8.87;4.73;;;;;;;2.04;100.00;101523.34;2097990;28;20205;-64
2023/11/30 04:38:46;;;;;;;7.00;4.47;;;;;;;2.02;100.00;101516.63;2098304;28;20722;-63
2023/11/30 04:39:47;;;;;;;7.00;4.00;;;;;;;2.04;100.00;101517.88;2090181;28;20577;-63
2023/11/30 04:40:48;;;;;;;7.68;4.95;;;;;;;2.00;100.00;101516.97;2095759;28;20197;-63